sensor_id;sensor_type;location;lat;lon;timestamp;temperature;humidity
45044;DHT22;30784;48.490;9.688;2023-04-24T00:01:27;13.60;55.00
45044;DHT22;30784;48.490;9.688;2023-04-24T00:03:55;13.50;55.10
45044;DHT22;30784;48.490;9.688;2023-04-24T00:06:25;13.50;55.30
45044;DHT22;30784;48.490;9.688;2023-04-24T00:08:59;13.50;55.30
45044;DHT22;30784;48.490;9.688;2023-04-24T00:11:26;13.50;55.50
45044;DHT22;30784;48.490;9.688;2023-04-24T00:13:51;13.50;55.80
45044;DHT22;30784;48.490;9.688;2023-04-24T00:16:17;13.40;55.80
45044;DHT22;30784;48.490;9.688;2023-04-24T00:18:42;13.50;56.10
45044;DHT22;30784;48.490;9.688;2023-04-24T00:21:08;13.40;56.20
45044;DHT22;30784;48.490;9.688;2023-04-24T00:23:33;13.40;56.30
45044;DHT22;30784;48.490;9.688;2023-04-24T00:25:59;13.30;56.30
45044;DHT22;30784;48.490;9.688;2023-04-24T00:28:24;13.30;56.60
45044;DHT22;30784;48.490;9.688;2023-04-24T00:30:50;13.30;56.70
45044;DHT22;30784;48.490;9.688;2023-04-24T00:33:16;13.30;56.80
45044;DHT22;30784;48.490;9.688;2023-04-24T00:35:41;13.30;56.80
45044;DHT22;30784;48.490;9.688;2023-04-24T00:38:07;13.20;57.00
45044;DHT22;30784;48.490;9.688;2023-04-24T00:40:32;13.20;57.00
45044;DHT22;30784;48.490;9.688;2023-04-24T00:42:58;13.20;57.10
45044;DHT22;30784;48.490;9.688;2023-04-24T00:45:24;13.20;57.20
45044;DHT22;30784;48.490;9.688;2023-04-24T00:47:51;13.20;57.30
45044;DHT22;30784;48.490;9.688;2023-04-24T00:50:17;13.10;57.40
45044;DHT22;30784;48.490;9.688;2023-04-24T00:52:44;13.10;57.40
45044;DHT22;30784;48.490;9.688;2023-04-24T00:55:10;13.10;57.40
45044;DHT22;30784;48.490;9.688;2023-04-24T00:57:36;13.10;57.50
45044;DHT22;30784;48.490;9.688;2023-04-24T01:00:02;13.10;57.40
45044;DHT22;30784;48.490;9.688;2023-04-24T01:02:28;13.10;57.50
45044;DHT22;30784;48.490;9.688;2023-04-24T01:04:54;13.00;57.50
45044;DHT22;30784;48.490;9.688;2023-04-24T01:07:20;13.10;57.60
45044;DHT22;30784;48.490;9.688;2023-04-24T01:09:48;13.10;57.50
45044;DHT22;30784;48.490;9.688;2023-04-24T01:12:15;13.00;57.40
45044;DHT22;30784;48.490;9.688;2023-04-24T01:14:40;13.10;57.70
45044;DHT22;30784;48.490;9.688;2023-04-24T01:17:06;13.00;57.50
45044;DHT22;30784;48.490;9.688;2023-04-24T01:19:32;13.10;57.60
45044;DHT22;30784;48.490;9.688;2023-04-24T01:21:58;13.10;57.60
45044;DHT22;30784;48.490;9.688;2023-04-24T01:24:27;13.10;57.60
45044;DHT22;30784;48.490;9.688;2023-04-24T01:26:53;13.00;57.50
45044;DHT22;30784;48.490;9.688;2023-04-24T01:29:19;13.00;57.60
45044;DHT22;30784;48.490;9.688;2023-04-24T01:31:44;13.00;57.70
45044;DHT22;30784;48.490;9.688;2023-04-24T01:34:10;13.00;57.80
45044;DHT22;30784;48.490;9.688;2023-04-24T01:36:37;13.00;58.00
45044;DHT22;30784;48.490;9.688;2023-04-24T01:39:03;13.00;58.00
45044;DHT22;30784;48.490;9.688;2023-04-24T01:41:30;12.90;58.00
45044;DHT22;30784;48.490;9.688;2023-04-24T01:43:57;12.90;58.10
45044;DHT22;30784;48.490;9.688;2023-04-24T01:46:24;12.90;58.10
45044;DHT22;30784;48.490;9.688;2023-04-24T01:48:51;12.90;58.00
45044;DHT22;30784;48.490;9.688;2023-04-24T01:51:17;12.90;58.10
45044;DHT22;30784;48.490;9.688;2023-04-24T01:53:43;12.90;58.20
45044;DHT22;30784;48.490;9.688;2023-04-24T01:56:08;12.90;58.10
45044;DHT22;30784;48.490;9.688;2023-04-24T01:58:34;12.90;58.20
45044;DHT22;30784;48.490;9.688;2023-04-24T02:01:00;13.00;58.30
45044;DHT22;30784;48.490;9.688;2023-04-24T02:03:26;12.90;58.20
45044;DHT22;30784;48.490;9.688;2023-04-24T02:05:52;12.90;58.20
45044;DHT22;30784;48.490;9.688;2023-04-24T02:08:17;12.90;58.30
45044;DHT22;30784;48.490;9.688;2023-04-24T02:10:43;12.90;58.20
45044;DHT22;30784;48.490;9.688;2023-04-24T02:13:09;13.00;58.30
45044;DHT22;30784;48.490;9.688;2023-04-24T02:15:35;12.90;58.10
45044;DHT22;30784;48.490;9.688;2023-04-24T02:18:01;12.90;58.20
45044;DHT22;30784;48.490;9.688;2023-04-24T02:20:27;12.80;58.10
45044;DHT22;30784;48.490;9.688;2023-04-24T02:22:52;12.90;58.20
45044;DHT22;30784;48.490;9.688;2023-04-24T02:25:18;12.90;58.30
45044;DHT22;30784;48.490;9.688;2023-04-24T02:27:43;12.90;58.20
45044;DHT22;30784;48.490;9.688;2023-04-24T02:30:09;12.90;58.10
45044;DHT22;30784;48.490;9.688;2023-04-24T02:32:35;12.90;58.20
45044;DHT22;30784;48.490;9.688;2023-04-24T02:35:01;12.80;58.20
45044;DHT22;30784;48.490;9.688;2023-04-24T02:37:26;12.80;58.20
45044;DHT22;30784;48.490;9.688;2023-04-24T02:39:52;12.80;58.10
45044;DHT22;30784;48.490;9.688;2023-04-24T02:42:17;12.80;58.10
45044;DHT22;30784;48.490;9.688;2023-04-24T02:44:43;12.90;58.10
45044;DHT22;30784;48.490;9.688;2023-04-24T02:47:08;12.80;58.10
45044;DHT22;30784;48.490;9.688;2023-04-24T02:49:34;12.80;58.00
45044;DHT22;30784;48.490;9.688;2023-04-24T02:52:00;12.80;58.00
45044;DHT22;30784;48.490;9.688;2023-04-24T02:54:25;12.80;58.10
45044;DHT22;30784;48.490;9.688;2023-04-24T02:56:51;12.80;58.10
45044;DHT22;30784;48.490;9.688;2023-04-24T02:59:16;12.80;58.20
45044;DHT22;30784;48.490;9.688;2023-04-24T03:01:42;12.80;58.20
45044;DHT22;30784;48.490;9.688;2023-04-24T03:04:07;12.80;58.20
45044;DHT22;30784;48.490;9.688;2023-04-24T03:06:33;12.80;58.80
45044;DHT22;30784;48.490;9.688;2023-04-24T03:09:00;12.70;58.20
45044;DHT22;30784;48.490;9.688;2023-04-24T03:11:26;12.70;58.20
45044;DHT22;30784;48.490;9.688;2023-04-24T03:13:51;12.70;58.20
45044;DHT22;30784;48.490;9.688;2023-04-24T03:16:17;12.70;58.40
45044;DHT22;30784;48.490;9.688;2023-04-24T03:18:43;12.70;58.40
45044;DHT22;30784;48.490;9.688;2023-04-24T03:21:08;12.70;58.50
45044;DHT22;30784;48.490;9.688;2023-04-24T03:23:34;12.70;58.50
45044;DHT22;30784;48.490;9.688;2023-04-24T03:25:59;12.70;58.50
45044;DHT22;30784;48.490;9.688;2023-04-24T03:28:25;12.70;58.60
45044;DHT22;30784;48.490;9.688;2023-04-24T03:30:51;12.70;58.70
45044;DHT22;30784;48.490;9.688;2023-04-24T03:33:17;12.70;58.80
45044;DHT22;30784;48.490;9.688;2023-04-24T03:35:42;12.70;58.80
45044;DHT22;30784;48.490;9.688;2023-04-24T03:38:08;12.60;58.80
45044;DHT22;30784;48.490;9.688;2023-04-24T03:40:33;12.60;58.80
45044;DHT22;30784;48.490;9.688;2023-04-24T03:42:59;12.60;59.00
45044;DHT22;30784;48.490;9.688;2023-04-24T03:45:25;12.60;59.30
45044;DHT22;30784;48.490;9.688;2023-04-24T03:47:50;12.60;59.50
45044;DHT22;30784;48.490;9.688;2023-04-24T03:50:16;12.60;59.30
45044;DHT22;30784;48.490;9.688;2023-04-24T03:52:41;12.60;59.30
45044;DHT22;30784;48.490;9.688;2023-04-24T03:55:07;12.60;59.40
45044;DHT22;30784;48.490;9.688;2023-04-24T03:57:33;12.50;59.30
45044;DHT22;30784;48.490;9.688;2023-04-24T03:59:58;12.50;59.30
45044;DHT22;30784;48.490;9.688;2023-04-24T04:02:24;12.50;59.30
45044;DHT22;30784;48.490;9.688;2023-04-24T04:04:49;12.50;59.40
45044;DHT22;30784;48.490;9.688;2023-04-24T04:07:15;12.50;59.40
45044;DHT22;30784;48.490;9.688;2023-04-24T04:09:40;12.50;59.60
45044;DHT22;30784;48.490;9.688;2023-04-24T04:12:06;12.40;59.50
45044;DHT22;30784;48.490;9.688;2023-04-24T04:14:31;12.40;59.60
45044;DHT22;30784;48.490;9.688;2023-04-24T04:16:57;12.40;59.70
45044;DHT22;30784;48.490;9.688;2023-04-24T04:19:22;12.40;59.60
45044;DHT22;30784;48.490;9.688;2023-04-24T04:21:48;12.40;59.60
45044;DHT22;30784;48.490;9.688;2023-04-24T04:24:18;12.40;59.80
45044;DHT22;30784;48.490;9.688;2023-04-24T04:26:44;12.40;59.70
45044;DHT22;30784;48.490;9.688;2023-04-24T04:29:12;12.40;59.90
45044;DHT22;30784;48.490;9.688;2023-04-24T04:31:38;12.40;59.90
45044;DHT22;30784;48.490;9.688;2023-04-24T04:34:04;12.40;59.90
45044;DHT22;30784;48.490;9.688;2023-04-24T04:36:29;12.40;60.00
45044;DHT22;30784;48.490;9.688;2023-04-24T04:38:55;12.40;60.00
45044;DHT22;30784;48.490;9.688;2023-04-24T04:41:22;12.40;60.00
45044;DHT22;30784;48.490;9.688;2023-04-24T04:43:47;12.40;60.10
45044;DHT22;30784;48.490;9.688;2023-04-24T04:46:13;12.40;60.10
45044;DHT22;30784;48.490;9.688;2023-04-24T04:48:38;12.40;60.10
45044;DHT22;30784;48.490;9.688;2023-04-24T04:51:05;12.40;60.20
45044;DHT22;30784;48.490;9.688;2023-04-24T04:53:30;12.40;60.30
45044;DHT22;30784;48.490;9.688;2023-04-24T04:55:56;12.40;60.20
45044;DHT22;30784;48.490;9.688;2023-04-24T04:58:22;12.40;60.20
45044;DHT22;30784;48.490;9.688;2023-04-24T05:00:47;12.40;60.20
45044;DHT22;30784;48.490;9.688;2023-04-24T05:03:13;12.40;60.20
45044;DHT22;30784;48.490;9.688;2023-04-24T05:05:39;12.50;60.30
45044;DHT22;30784;48.490;9.688;2023-04-24T05:08:07;12.40;60.20
45044;DHT22;30784;48.490;9.688;2023-04-24T05:10:32;12.40;60.30
45044;DHT22;30784;48.490;9.688;2023-04-24T05:12:58;12.40;60.30
45044;DHT22;30784;48.490;9.688;2023-04-24T05:15:23;12.40;60.40
45044;DHT22;30784;48.490;9.688;2023-04-24T05:17:49;12.40;60.30
45044;DHT22;30784;48.490;9.688;2023-04-24T05:20:15;12.40;60.40
45044;DHT22;30784;48.490;9.688;2023-04-24T05:22:40;12.40;60.30
45044;DHT22;30784;48.490;9.688;2023-04-24T05:25:06;12.40;60.50
45044;DHT22;30784;48.490;9.688;2023-04-24T05:27:32;12.40;60.50
45044;DHT22;30784;48.490;9.688;2023-04-24T05:29:57;12.40;60.50
45044;DHT22;30784;48.490;9.688;2023-04-24T05:32:23;12.40;60.50
45044;DHT22;30784;48.490;9.688;2023-04-24T05:34:48;12.40;60.80
45044;DHT22;30784;48.490;9.688;2023-04-24T05:37:14;12.50;60.80
45044;DHT22;30784;48.490;9.688;2023-04-24T05:39:39;12.50;60.90
45044;DHT22;30784;48.490;9.688;2023-04-24T05:42:06;12.50;60.90
45044;DHT22;30784;48.490;9.688;2023-04-24T05:44:32;12.50;61.10
45044;DHT22;30784;48.490;9.688;2023-04-24T05:46:58;12.50;61.00
45044;DHT22;30784;48.490;9.688;2023-04-24T05:49:23;12.50;60.40
45044;DHT22;30784;48.490;9.688;2023-04-24T05:51:49;12.50;59.60
45044;DHT22;30784;48.490;9.688;2023-04-24T05:54:14;12.40;59.40
45044;DHT22;30784;48.490;9.688;2023-04-24T05:56:40;12.30;59.20
45044;DHT22;30784;48.490;9.688;2023-04-24T05:59:06;12.30;59.00
45044;DHT22;30784;48.490;9.688;2023-04-24T06:01:32;12.30;58.90
45044;DHT22;30784;48.490;9.688;2023-04-24T06:03:58;12.20;58.60
45044;DHT22;30784;48.490;9.688;2023-04-24T06:06:24;12.20;58.80
45044;DHT22;30784;48.490;9.688;2023-04-24T06:08:49;12.20;58.90
45044;DHT22;30784;48.490;9.688;2023-04-24T06:11:15;12.20;58.80
45044;DHT22;30784;48.490;9.688;2023-04-24T06:13:41;12.10;58.70
45044;DHT22;30784;48.490;9.688;2023-04-24T06:16:06;12.10;58.60
45044;DHT22;30784;48.490;9.688;2023-04-24T06:18:32;12.10;58.70
45044;DHT22;30784;48.490;9.688;2023-04-24T06:20:58;12.00;58.60
45044;DHT22;30784;48.490;9.688;2023-04-24T06:23:23;12.00;58.60
45044;DHT22;30784;48.490;9.688;2023-04-24T06:25:49;12.00;58.60
45044;DHT22;30784;48.490;9.688;2023-04-24T06:28:15;11.90;58.50
45044;DHT22;30784;48.490;9.688;2023-04-24T06:30:40;11.90;58.70
45044;DHT22;30784;48.490;9.688;2023-04-24T06:33:06;11.90;58.90
45044;DHT22;30784;48.490;9.688;2023-04-24T06:35:32;11.90;59.00
45044;DHT22;30784;48.490;9.688;2023-04-24T06:37:57;11.80;58.80
45044;DHT22;30784;48.490;9.688;2023-04-24T06:40:23;11.80;58.70
45044;DHT22;30784;48.490;9.688;2023-04-24T06:42:48;11.90;58.60
45044;DHT22;30784;48.490;9.688;2023-04-24T06:45:14;11.90;58.70
45044;DHT22;30784;48.490;9.688;2023-04-24T06:47:39;11.90;59.20
45044;DHT22;30784;48.490;9.688;2023-04-24T06:50:05;11.90;58.70
45044;DHT22;30784;48.490;9.688;2023-04-24T06:52:31;11.90;58.70
45044;DHT22;30784;48.490;9.688;2023-04-24T06:55:04;11.90;58.70
45044;DHT22;30784;48.490;9.688;2023-04-24T06:57:30;12.00;58.70
45044;DHT22;30784;48.490;9.688;2023-04-24T06:59:55;12.00;59.30
45044;DHT22;30784;48.490;9.688;2023-04-24T07:02:21;12.00;58.70
45044;DHT22;30784;48.490;9.688;2023-04-24T07:04:47;12.00;58.50
45044;DHT22;30784;48.490;9.688;2023-04-24T07:07:15;12.00;58.60
45044;DHT22;30784;48.490;9.688;2023-04-24T07:09:41;12.10;58.60
45044;DHT22;30784;48.490;9.688;2023-04-24T07:12:08;12.10;58.50
45044;DHT22;30784;48.490;9.688;2023-04-24T07:14:34;12.10;58.60
45044;DHT22;30784;48.490;9.688;2023-04-24T07:17:00;12.20;58.60
45044;DHT22;30784;48.490;9.688;2023-04-24T07:19:26;12.20;58.80
45044;DHT22;30784;48.490;9.688;2023-04-24T07:21:52;12.20;58.70
45044;DHT22;30784;48.490;9.688;2023-04-24T07:24:18;12.20;58.80
45044;DHT22;30784;48.490;9.688;2023-04-24T07:26:44;12.30;59.10
45044;DHT22;30784;48.490;9.688;2023-04-24T07:29:11;12.40;59.10
45044;DHT22;30784;48.490;9.688;2023-04-24T07:31:37;12.50;59.10
45044;DHT22;30784;48.490;9.688;2023-04-24T07:34:03;12.60;58.60
45044;DHT22;30784;48.490;9.688;2023-04-24T07:36:28;12.80;58.30
45044;DHT22;30784;48.490;9.688;2023-04-24T07:38:54;12.90;58.30
45044;DHT22;30784;48.490;9.688;2023-04-24T07:41:20;13.10;58.30
45044;DHT22;30784;48.490;9.688;2023-04-24T07:43:46;13.20;57.00
45044;DHT22;30784;48.490;9.688;2023-04-24T07:46:12;13.30;55.80
45044;DHT22;30784;48.490;9.688;2023-04-24T07:48:37;13.40;55.60
45044;DHT22;30784;48.490;9.688;2023-04-24T07:51:03;13.50;55.70
45044;DHT22;30784;48.490;9.688;2023-04-24T07:53:29;13.60;55.40
45044;DHT22;30784;48.490;9.688;2023-04-24T07:55:56;13.50;54.90
45044;DHT22;30784;48.490;9.688;2023-04-24T07:58:21;13.60;54.10
45044;DHT22;30784;48.490;9.688;2023-04-24T08:00:47;13.60;54.40
45044;DHT22;30784;48.490;9.688;2023-04-24T08:03:13;13.60;53.80
45044;DHT22;30784;48.490;9.688;2023-04-24T08:05:38;13.60;54.00
45044;DHT22;30784;48.490;9.688;2023-04-24T08:08:04;13.70;54.20
45044;DHT22;30784;48.490;9.688;2023-04-24T08:10:30;13.70;53.90
45044;DHT22;30784;48.490;9.688;2023-04-24T08:12:55;13.80;54.10
45044;DHT22;30784;48.490;9.688;2023-04-24T08:15:21;13.80;54.50
45044;DHT22;30784;48.490;9.688;2023-04-24T08:17:47;13.80;54.90
45044;DHT22;30784;48.490;9.688;2023-04-24T08:20:12;13.70;55.00
45044;DHT22;30784;48.490;9.688;2023-04-24T08:22:41;13.60;54.70
45044;DHT22;30784;48.490;9.688;2023-04-24T08:25:08;13.50;54.10
45044;DHT22;30784;48.490;9.688;2023-04-24T08:27:34;13.40;54.60
45044;DHT22;30784;48.490;9.688;2023-04-24T08:30:00;13.20;55.20
45044;DHT22;30784;48.490;9.688;2023-04-24T08:32:25;13.20;55.40
45044;DHT22;30784;48.490;9.688;2023-04-24T08:34:54;13.10;55.70
45044;DHT22;30784;48.490;9.688;2023-04-24T08:37:22;13.10;55.30
45044;DHT22;30784;48.490;9.688;2023-04-24T08:39:47;13.00;55.90
45044;DHT22;30784;48.490;9.688;2023-04-24T08:42:13;13.10;55.10
45044;DHT22;30784;48.490;9.688;2023-04-24T08:44:40;13.10;55.80
45044;DHT22;30784;48.490;9.688;2023-04-24T08:47:07;13.20;56.00
45044;DHT22;30784;48.490;9.688;2023-04-24T08:49:33;13.30;55.50
45044;DHT22;30784;48.490;9.688;2023-04-24T08:52:01;13.40;54.90
45044;DHT22;30784;48.490;9.688;2023-04-24T08:54:28;13.60;54.10
45044;DHT22;30784;48.490;9.688;2023-04-24T08:56:58;13.70;53.30
45044;DHT22;30784;48.490;9.688;2023-04-24T08:59:24;14.00;52.90
45044;DHT22;30784;48.490;9.688;2023-04-24T09:01:50;14.20;52.30
45044;DHT22;30784;48.490;9.688;2023-04-24T09:04:17;14.40;52.50
45044;DHT22;30784;48.490;9.688;2023-04-24T09:06:45;14.60;50.50
45044;DHT22;30784;48.490;9.688;2023-04-24T09:09:10;14.70;50.70
45044;DHT22;30784;48.490;9.688;2023-04-24T09:11:37;14.90;50.20
45044;DHT22;30784;48.490;9.688;2023-04-24T09:14:03;15.00;48.90
45044;DHT22;30784;48.490;9.688;2023-04-24T09:16:29;15.10;48.90
45044;DHT22;30784;48.490;9.688;2023-04-24T09:18:56;15.10;48.10
45044;DHT22;30784;48.490;9.688;2023-04-24T09:21:22;15.10;48.20
45044;DHT22;30784;48.490;9.688;2023-04-24T09:24:06;15.10;47.50
45044;DHT22;30784;48.490;9.688;2023-04-24T09:26:34;15.10;48.10
45044;DHT22;30784;48.490;9.688;2023-04-24T09:29:01;15.20;47.10
45044;DHT22;30784;48.490;9.688;2023-04-24T09:31:28;15.20;47.60
45044;DHT22;30784;48.490;9.688;2023-04-24T09:33:54;15.30;48.50
45044;DHT22;30784;48.490;9.688;2023-04-24T09:36:27;15.40;48.00
45044;DHT22;30784;48.490;9.688;2023-04-24T09:38:57;15.50;47.30
45044;DHT22;30784;48.490;9.688;2023-04-24T09:41:23;15.70;45.90
45044;DHT22;30784;48.490;9.688;2023-04-24T09:43:48;16.00;45.70
45044;DHT22;30784;48.490;9.688;2023-04-24T09:46:14;16.20;46.20
45044;DHT22;30784;48.490;9.688;2023-04-24T09:48:39;16.30;45.20
45044;DHT22;30784;48.490;9.688;2023-04-24T09:51:06;16.40;44.10
45044;DHT22;30784;48.490;9.688;2023-04-24T09:53:37;16.70;43.80
45044;DHT22;30784;48.490;9.688;2023-04-24T09:56:07;16.90;43.70
45044;DHT22;30784;48.490;9.688;2023-04-24T09:58:35;17.00;42.90
45044;DHT22;30784;48.490;9.688;2023-04-24T10:01:01;17.10;42.50
45044;DHT22;30784;48.490;9.688;2023-04-24T10:03:30;17.20;42.40
45044;DHT22;30784;48.490;9.688;2023-04-24T10:05:58;17.20;41.50
45044;DHT22;30784;48.490;9.688;2023-04-24T10:08:25;17.30;41.40
45044;DHT22;30784;48.490;9.688;2023-04-24T10:10:52;17.30;41.30
45044;DHT22;30784;48.490;9.688;2023-04-24T10:13:18;17.30;41.10
45044;DHT22;30784;48.490;9.688;2023-04-24T10:15:44;17.30;41.10
45044;DHT22;30784;48.490;9.688;2023-04-24T10:18:10;17.20;40.90
45044;DHT22;30784;48.490;9.688;2023-04-24T10:20:39;17.10;41.00
45044;DHT22;30784;48.490;9.688;2023-04-24T10:23:05;17.00;41.10
45044;DHT22;30784;48.490;9.688;2023-04-24T10:25:33;16.80;40.80
45044;DHT22;30784;48.490;9.688;2023-04-24T10:28:00;16.80;40.30
45044;DHT22;30784;48.490;9.688;2023-04-24T10:30:27;16.60;40.00
45044;DHT22;30784;48.490;9.688;2023-04-24T10:32:53;16.40;40.60
45044;DHT22;30784;48.490;9.688;2023-04-24T10:35:19;16.30;40.30
45044;DHT22;30784;48.490;9.688;2023-04-24T10:38:04;16.20;40.50
45044;DHT22;30784;48.490;9.688;2023-04-24T10:40:32;16.10;41.30
45044;DHT22;30784;48.490;9.688;2023-04-24T10:42:58;16.10;40.90
45044;DHT22;30784;48.490;9.688;2023-04-24T10:45:24;16.20;41.10
45044;DHT22;30784;48.490;9.688;2023-04-24T10:47:56;16.30;41.20
45044;DHT22;30784;48.490;9.688;2023-04-24T10:50:22;16.40;41.30
45044;DHT22;30784;48.490;9.688;2023-04-24T10:52:48;16.50;39.90
45044;DHT22;30784;48.490;9.688;2023-04-24T10:55:16;16.70;40.30
45044;DHT22;30784;48.490;9.688;2023-04-24T10:58:05;16.70;39.50
45044;DHT22;30784;48.490;9.688;2023-04-24T11:00:31;16.90;39.50
45044;DHT22;30784;48.490;9.688;2023-04-24T11:02:56;16.90;38.60
45044;DHT22;30784;48.490;9.688;2023-04-24T11:06:15;16.90;38.20
45044;DHT22;30784;48.490;9.688;2023-04-24T11:08:44;16.80;39.30
45044;DHT22;30784;48.490;9.688;2023-04-24T11:11:12;16.80;38.00
45044;DHT22;30784;48.490;9.688;2023-04-24T11:21:43;16.80;38.10
45044;DHT22;30784;48.490;9.688;2023-04-24T11:26:48;16.80;38.20
45044;DHT22;30784;48.490;9.688;2023-04-24T11:29:14;16.80;37.40
45044;DHT22;30784;48.490;9.688;2023-04-24T11:31:40;16.70;36.80
45044;DHT22;30784;48.490;9.688;2023-04-24T11:34:14;16.70;36.60
45044;DHT22;30784;48.490;9.688;2023-04-24T11:36:43;16.60;36.80
45044;DHT22;30784;48.490;9.688;2023-04-24T11:39:09;16.50;37.00
45044;DHT22;30784;48.490;9.688;2023-04-24T11:41:36;16.40;37.00
45044;DHT22;30784;48.490;9.688;2023-04-24T11:44:03;16.30;36.90
45044;DHT22;30784;48.490;9.688;2023-04-24T11:46:31;16.20;37.00
45044;DHT22;30784;48.490;9.688;2023-04-24T11:48:57;16.10;36.80
45044;DHT22;30784;48.490;9.688;2023-04-24T11:51:24;15.90;37.10
45044;DHT22;30784;48.490;9.688;2023-04-24T11:53:55;15.80;37.40
45044;DHT22;30784;48.490;9.688;2023-04-24T11:56:24;15.70;37.70
45044;DHT22;30784;48.490;9.688;2023-04-24T11:58:52;15.60;37.90
45044;DHT22;30784;48.490;9.688;2023-04-24T12:01:19;15.50;38.10
45044;DHT22;30784;48.490;9.688;2023-04-24T12:03:50;15.50;38.30
45044;DHT22;30784;48.490;9.688;2023-04-24T12:06:16;15.30;38.30
45044;DHT22;30784;48.490;9.688;2023-04-24T12:08:46;15.20;38.50
45044;DHT22;30784;48.490;9.688;2023-04-24T12:11:15;15.20;38.50
45044;DHT22;30784;48.490;9.688;2023-04-24T12:13:41;15.00;38.70
45044;DHT22;30784;48.490;9.688;2023-04-24T12:16:07;14.90;38.90
45044;DHT22;30784;48.490;9.688;2023-04-24T12:18:33;14.80;39.10
45044;DHT22;30784;48.490;9.688;2023-04-24T12:21:20;14.80;39.20
45044;DHT22;30784;48.490;9.688;2023-04-24T12:23:46;14.70;39.30
45044;DHT22;30784;48.490;9.688;2023-04-24T12:26:17;14.60;39.20
45044;DHT22;30784;48.490;9.688;2023-04-24T12:28:45;14.50;39.20
45044;DHT22;30784;48.490;9.688;2023-04-24T12:31:11;14.50;39.30
45044;DHT22;30784;48.490;9.688;2023-04-24T12:33:36;14.40;39.40
45044;DHT22;30784;48.490;9.688;2023-04-24T12:36:02;14.40;39.80
45044;DHT22;30784;48.490;9.688;2023-04-24T12:38:29;14.30;40.10
45044;DHT22;30784;48.490;9.688;2023-04-24T12:41:03;14.30;40.40
45044;DHT22;30784;48.490;9.688;2023-04-24T12:43:29;14.20;40.20
45044;DHT22;30784;48.490;9.688;2023-04-24T12:45:55;14.20;40.30
45044;DHT22;30784;48.490;9.688;2023-04-24T12:48:20;14.10;40.20
45044;DHT22;30784;48.490;9.688;2023-04-24T12:50:47;14.00;40.30
45044;DHT22;30784;48.490;9.688;2023-04-24T12:53:13;14.00;40.50
45044;DHT22;30784;48.490;9.688;2023-04-24T12:55:39;13.90;40.50
45044;DHT22;30784;48.490;9.688;2023-04-24T12:58:05;13.80;40.70
45044;DHT22;30784;48.490;9.688;2023-04-24T13:00:31;13.80;41.00
45044;DHT22;30784;48.490;9.688;2023-04-24T13:02:56;13.80;41.10
45044;DHT22;30784;48.490;9.688;2023-04-24T13:05:22;13.70;41.00
45044;DHT22;30784;48.490;9.688;2023-04-24T13:07:47;13.70;41.10
45044;DHT22;30784;48.490;9.688;2023-04-24T13:10:13;13.60;41.20
45044;DHT22;30784;48.490;9.688;2023-04-24T13:12:39;13.60;41.30
45044;DHT22;30784;48.490;9.688;2023-04-24T13:15:06;13.60;41.20
45044;DHT22;30784;48.490;9.688;2023-04-24T13:17:31;13.60;41.30
45044;DHT22;30784;48.490;9.688;2023-04-24T13:19:57;13.50;41.40
45044;DHT22;30784;48.490;9.688;2023-04-24T13:22:22;13.50;41.30
45044;DHT22;30784;48.490;9.688;2023-04-24T13:24:48;13.50;41.50
45044;DHT22;30784;48.490;9.688;2023-04-24T13:27:15;13.50;41.60
45044;DHT22;30784;48.490;9.688;2023-04-24T13:29:41;13.50;41.70
45044;DHT22;30784;48.490;9.688;2023-04-24T13:32:07;13.60;41.70
45044;DHT22;30784;48.490;9.688;2023-04-24T13:34:33;13.60;41.30
45044;DHT22;30784;48.490;9.688;2023-04-24T13:37:00;13.70;41.40
45044;DHT22;30784;48.490;9.688;2023-04-24T13:39:25;13.80;41.60
45044;DHT22;30784;48.490;9.688;2023-04-24T13:41:52;13.80;41.70
45044;DHT22;30784;48.490;9.688;2023-04-24T13:44:19;13.90;41.50
45044;DHT22;30784;48.490;9.688;2023-04-24T13:46:47;14.00;41.30
45044;DHT22;30784;48.490;9.688;2023-04-24T13:49:13;14.10;41.20
45044;DHT22;30784;48.490;9.688;2023-04-24T13:51:40;14.20;40.30
45044;DHT22;30784;48.490;9.688;2023-04-24T13:54:06;14.20;40.20
45044;DHT22;30784;48.490;9.688;2023-04-24T13:56:32;14.20;39.90
45044;DHT22;30784;48.490;9.688;2023-04-24T13:58:57;14.30;40.00
45044;DHT22;30784;48.490;9.688;2023-04-24T14:01:23;14.30;40.10
45044;DHT22;30784;48.490;9.688;2023-04-24T14:03:53;14.40;40.10
45044;DHT22;30784;48.490;9.688;2023-04-24T14:06:20;14.40;39.70
45044;DHT22;30784;48.490;9.688;2023-04-24T14:08:46;14.50;39.70
45044;DHT22;30784;48.490;9.688;2023-04-24T14:11:12;14.60;39.80
45044;DHT22;30784;48.490;9.688;2023-04-24T14:13:38;14.70;39.40
45044;DHT22;30784;48.490;9.688;2023-04-24T14:16:04;14.80;39.30
45044;DHT22;30784;48.490;9.688;2023-04-24T14:18:30;14.90;39.00
45044;DHT22;30784;48.490;9.688;2023-04-24T14:20:55;14.90;38.60
45044;DHT22;30784;48.490;9.688;2023-04-24T14:23:21;15.00;38.60
45044;DHT22;30784;48.490;9.688;2023-04-24T14:25:47;15.00;38.70
45044;DHT22;30784;48.490;9.688;2023-04-24T14:28:16;15.00;38.70
45044;DHT22;30784;48.490;9.688;2023-04-24T14:30:42;15.00;38.50
45044;DHT22;30784;48.490;9.688;2023-04-24T14:33:07;15.00;38.60
45044;DHT22;30784;48.490;9.688;2023-04-24T14:35:33;15.00;38.40
45044;DHT22;30784;48.490;9.688;2023-04-24T14:38:00;15.00;38.40
45044;DHT22;30784;48.490;9.688;2023-04-24T14:40:26;14.90;38.30
45044;DHT22;30784;48.490;9.688;2023-04-24T14:42:51;14.90;38.30
45044;DHT22;30784;48.490;9.688;2023-04-24T14:45:17;14.90;38.40
45044;DHT22;30784;48.490;9.688;2023-04-24T14:47:43;14.80;38.30
45044;DHT22;30784;48.490;9.688;2023-04-24T14:50:09;14.80;38.20
45044;DHT22;30784;48.490;9.688;2023-04-24T14:52:35;14.70;38.20
45044;DHT22;30784;48.490;9.688;2023-04-24T14:55:01;14.70;38.30
45044;DHT22;30784;48.490;9.688;2023-04-24T14:57:26;14.60;38.40
45044;DHT22;30784;48.490;9.688;2023-04-24T14:59:52;14.60;38.50
45044;DHT22;30784;48.490;9.688;2023-04-24T15:02:18;14.50;38.50
45044;DHT22;30784;48.490;9.688;2023-04-24T15:04:44;14.50;38.20
45044;DHT22;30784;48.490;9.688;2023-04-24T15:07:09;14.50;38.40
45044;DHT22;30784;48.490;9.688;2023-04-24T15:09:35;14.40;38.70
45044;DHT22;30784;48.490;9.688;2023-04-24T15:12:00;14.40;38.70
45044;DHT22;30784;48.490;9.688;2023-04-24T15:14:27;14.40;38.70
45044;DHT22;30784;48.490;9.688;2023-04-24T15:16:52;14.30;38.50
45044;DHT22;30784;48.490;9.688;2023-04-24T15:19:18;14.30;38.70
45044;DHT22;30784;48.490;9.688;2023-04-24T15:21:43;14.30;38.80
45044;DHT22;30784;48.490;9.688;2023-04-24T15:24:09;14.30;39.00
45044;DHT22;30784;48.490;9.688;2023-04-24T15:26:35;14.30;38.90
45044;DHT22;30784;48.490;9.688;2023-04-24T15:29:01;14.30;38.60
45044;DHT22;30784;48.490;9.688;2023-04-24T15:31:27;14.40;39.10
45044;DHT22;30784;48.490;9.688;2023-04-24T15:33:53;14.30;39.30
45044;DHT22;30784;48.490;9.688;2023-04-24T15:36:19;14.50;39.20